M I D A S
Marine Information and Data Acquisition System
Tripno 1700 of the Zeeleeuw from 2009-05-27 07:00:46 to 2009-05-27 12:25:24
Back to CruiseResearch ActivitiesStationsMapUnderway DataData graphs

EquipmentUnitsComments
TimeDGPSUTC
LatitudeDGPSDM.mWGS84
LongitudeDGPSDM.mWGS84
SpeedMeteo Stationm/sRelative wind speed
DirectionMeteo StationdegRelative wind direction
TemperatureMeteo Stationdeg CelciusAir temperature
PressureMeteo StationPaAtmospheric pressure
HumidityMeteo Station%Relative humidity
Missing or incorrect values are displayed as -999
Metereological data collected by the RV Zeeleeuw from 2009-05-27 07:04:53 to 2009-05-27 17:11:54
Time Latitude Longitude Speed Direction Temperature Pressure Humidity
2009-05-27 07:06 51°13.678 2°55.904 5.8 28 12.3 102440 72
2009-05-27 07:07 51°13.692 2°55.836 4.2 42 12.3 102440 71
2009-05-27 07:08 51°13.701 2°55.772 3.4 42 12.4 102440 71
2009-05-27 07:08 51°13.708 2°55.759 1.8 25 12.6 102450 71
2009-05-27 07:09 51°13.702 2°55.742 6.3 80 12.7 102450 69
2009-05-27 07:10 51°13.746 2°55.716 5 285 12.7 102450 69
2009-05-27 07:11 51°13.85 2°55.621 4.5 280 12.9 102440 69
2009-05-27 07:12 51°13.977 2°55.526 6.7 21 13 102450 68
2009-05-27 07:13 51°14.109 2°55.429 4.4 282 13 102460 68
2009-05-27 07:14 51°14.237 2°55.31 12.3 277 13 102450 68
2009-05-27 07:15 51°14.335 2°55.124 12 281 13 102460 72
2009-05-27 07:16 51°14.432 2°54.922 18.6 280 12.9 102450 72
2009-05-27 07:17 51°14.567 2°54.752 15.1 280 12.8 102440 73
2009-05-27 07:18 51°14.737 2°54.615 13.4 282 12.8 102430 74
2009-05-27 07:19 51°14.907 2°54.466 15.8 247 12.8 102460 76
2009-05-27 07:20 51°15.081 2°54.34 16.6 279 12.8 102440 76
2009-05-27 07:21 51°15.253 2°54.212 14.3 23 12.7 102440 75
2009-05-27 07:22 51°15.417 2°54.063 12.8 286 12.7 102450 77
2009-05-27 07:23 51°15.583 2°53.912 16.3 284 12.7 102420 76
2009-05-27 07:24 51°15.748 2°53.756 14.4 281 12.6 102440 74
2009-05-27 07:25 51°15.911 2°53.594 18.6 281 12.6 102440 77
2009-05-27 07:26 51°16.074 2°53.433 14.3 281 12.6 102390 77
2009-05-27 07:27 51°16.24 2°53.27 14 281 12.6 102400 76
2009-05-27 07:28 51°16.406 2°53.11 14.3 247 12.5 102400 75
2009-05-27 07:29 51°16.576 2°52.973 12.4 284 12.6 102410 77
2009-05-27 07:30 51°16.75 2°52.84 12.7 24 12.6 102430 78
2009-05-27 07:31 51°16.922 2°52.712 13.1 283 12.6 102410 78
2009-05-27 07:32 51°17.093 2°52.583 12 287 12.6 102420 78
2009-05-27 07:33 51°17.266 2°52.454 14.1 281 12.6 102420 78
2009-05-27 07:34 51°17.432 2°52.305 13.3 285 12.6 102410 78
2009-05-27 07:35 51°17.586 2°52.13 18.9 284 12.5 102400 77
2009-05-27 07:36 51°17.741 2°51.957 14.1 283 12.6 102400 78
2009-05-27 07:37 51°17.897 2°51.784 14.4 22 12.5 102410 78
2009-05-27 07:38 51°18.053 2°51.609 13.6 282 12.6 102390 79
2009-05-27 07:39 51°18.211 2°51.433 12.8 281 12.6 102410 79
2009-05-27 07:40 51°18.369 2°51.253 16.7 283 12.6 102400 80
2009-05-27 07:41 51°18.526 2°51.073 14.5 284 12.6 102400 81
2009-05-27 07:42 51°18.683 2°50.892 13.9 281 12.6 102400 80
2009-05-27 07:43 51°18.84 2°50.708 15.6 286 12.6 102390 80
2009-05-27 07:44 51°18.998 2°50.527 12.9 278 12.5 102400 80
2009-05-27 07:45 51°19.154 2°50.348 13.5 285 12.5 102390 80
2009-05-27 07:46 51°19.311 2°50.166 17 26 12.5 102390 80
2009-05-27 07:47 51°19.468 2°49.981 14.4 283 12.5 102370 80
2009-05-27 07:48 51°19.628 2°49.8 20.1 285 12.5 102360 77
2009-05-27 07:49 51°19.786 2°49.618 16.8 283 12.5 102360 79
2009-05-27 07:50 51°19.944 2°49.437 15.7 280 12.4 102360 75
2009-05-27 07:51 51°20.098 2°49.257 16.8 26 12.5 102370 76
2009-05-27 07:52 51°20.252 2°49.074 15.7 23 12.5 102370 75
2009-05-27 07:53 51°20.408 2°48.888 16.1 25 12.5 102380 74
2009-05-27 07:54 51°20.564 2°48.698 13.9 26 12.5 102370 74
2009-05-27 07:55 51°20.719 2°48.507 13.8 24 12.5 102370 76
2009-05-27 07:56 51°20.874 2°48.326 15.6 25 12.5 102370 76
2009-05-27 07:57 51°21.03 2°48.142 16.2 284 12.6 102380 76
2009-05-27 07:58 51°21.187 2°47.957 17.3 26 12.5 102380 75
2009-05-27 07:59 51°21.342 2°47.759 16.2 22 12.5 102370 76
2009-05-27 08:00 51°21.489 2°47.541 15.6 23 12.6 102380 77
2009-05-27 08:01 51°21.64 2°47.337 16.2 21 12.6 102360 77
2009-05-27 08:02 51°21.812 2°47.19 16.3 23 12.5 102390 78
2009-05-27 08:03 51°21.984 2°47.045 14.6 25 12.5 102380 77
2009-05-27 08:04 51°22.158 2°46.909 14.6 282 12.6 102410 80
2009-05-27 08:05 51°22.332 2°46.774 14.8 23 12.5 102400 78
2009-05-27 08:06 51°22.502 2°46.634 13.5 278 12.6 102400 79
2009-05-27 08:07 51°22.662 2°46.463 13.8 22 12.5 102380 78
2009-05-27 08:08 51°22.822 2°46.292 12.5 245 12.5 102380 79
2009-05-27 08:09 51°22.98 2°46.123 15 24 12.6 102400 80
2009-05-27 08:10 51°23.14 2°45.951 13.5 277 12.5 102410 79
2009-05-27 08:11 51°23.299 2°45.788 16.7 24 12.6 102370 80
2009-05-27 08:12 51°23.458 2°45.621 14.9 21 12.5 102380 79
2009-05-27 08:13 51°23.616 2°45.45 14.3 281 12.6 102370 80
2009-05-27 08:14 51°23.774 2°45.277 16.6 22 12.5 102390 80
2009-05-27 08:15 51°23.932 2°45.108 16.6 286 12.5 102390 79
2009-05-27 08:16 51°24.091 2°44.952 11 251 12.5 102380 81
2009-05-27 08:17 51°24.241 2°45.046 8 22 12.6 102430 81
2009-05-27 08:18 51°24.337 2°45.279 5.1 80 12.4 102420 78
2009-05-27 08:19 51°24.429 2°45.522 5.8 80 12.7 102420 80
2009-05-27 08:20 51°24.53 2°45.749 4.1 25 12.7 102420 77
2009-05-27 08:21 51°24.635 2°45.967 5.5 22 12.8 102420 79
2009-05-27 08:22 51°24.734 2°46.192 5.7 81 12.8 102430 80
2009-05-27 08:23 51°24.836 2°46.415 2.8 24 12.6 102420 80
2009-05-27 08:24 51°24.937 2°46.644 4.6 80 13 102430 81
2009-05-27 08:25 51°25.036 2°46.873 6.8 24 12.9 102420 75
2009-05-27 08:26 51°25.133 2°47.106 3.5 21 13 102430 76
2009-05-27 08:27 51°25.228 2°47.34 4.9 22 13.2 102430 77
2009-05-27 08:28 51°25.319 2°47.579 5.4 25 13.4 102420 77
2009-05-27 08:29 51°25.409 2°47.819 3.3 28 13.5 102420 75
2009-05-27 08:30 51°25.502 2°48.053 5.6 22 13.7 102430 73
2009-05-27 08:31 51°25.591 2°48.289 3.4 75 13.6 102430 70
2009-05-27 08:32 51°25.68 2°48.524 4.5 24 13.5 102430 73
2009-05-27 08:33 51°25.767 2°48.758 4.2 81 13.4 102420 71
2009-05-27 08:34 51°25.858 2°48.991 4.8 74 13.2 102430 73
2009-05-27 08:35 51°25.946 2°49.226 5.7 20 13 102430 75
2009-05-27 08:36 51°26.037 2°49.463 4.2 81 12.9 102430 77
2009-05-27 08:37 51°26.127 2°49.699 3.8 74 13.5 102430 76
2009-05-27 08:38 51°26.217 2°49.934 4.7 19 13.7 102420 73
2009-05-27 08:39 51°26.31 2°50.171 5 25 13.7 102430 72
2009-05-27 08:40 51°26.399 2°50.404 4.2 77 13.4 102420 74
2009-05-27 08:41 51°26.493 2°50.633 4.8 75 13.4 102430 77
2009-05-27 08:42 51°26.583 2°50.865 5.3 77 13.4 102420 77
2009-05-27 08:43 51°26.673 2°51.105 5.5 80 13.7 102420 72
2009-05-27 08:44 51°26.757 2°51.35 2.2 76 13.9 102420 72
2009-05-27 08:45 51°26.842 2°51.589 5.5 74 14 102420 68
2009-05-27 08:46 51°26.928 2°51.831 2.6 22 14.1 102440 70
2009-05-27 08:47 51°27.011 2°52.074 4.9 80 14.2 102430 72
2009-05-27 08:48 51°27.092 2°52.317 5.1 26 14.2 102430 68
2009-05-27 08:49 51°27.17 2°52.56 5.3 80 13.9 102430 69
2009-05-27 08:50 51°27.249 2°52.806 5.9 77 13.6 102430 73
2009-05-27 08:51 51°27.327 2°53.049 4.8 22 13.4 102430 74
2009-05-27 08:52 51°27.406 2°53.293 4.6 25 13.6 102430 73
2009-05-27 08:53 51°27.483 2°53.537 4 26 13.5 102440 73
2009-05-27 08:54 51°27.562 2°53.775 3.6 28 13.6 102430 75
2009-05-27 08:55 51°27.643 2°54.016 6.2 26 13.7 102430 68
2009-05-27 08:56 51°27.72 2°54.256 5.5 25 13.3 102430 71
2009-05-27 08:57 51°27.798 2°54.497 6.4 27 13.2 102420 75
2009-05-27 08:58 51°27.874 2°54.738 2.9 27 13.1 102420 73
2009-05-27 08:59 51°27.953 2°54.976 4.6 26 13.1 102420 75
2009-05-27 09:00 51°28.029 2°55.216 4.6 20 13.2 102420 79
2009-05-27 09:01 51°28.11 2°55.448 4.3 24 13.3 102420 75
2009-05-27 09:02 51°28.189 2°55.684 6.2 24 13.5 102420 74
2009-05-27 09:03 51°28.271 2°55.92 3.6 25 13.6 102420 75
2009-05-27 09:04 51°28.351 2°56.151 4.3 20 13.6 102420 75
2009-05-27 09:05 51°28.433 2°56.385 4.6 22 13.4 102420 73
2009-05-27 09:06 51°28.513 2°56.624 4 23 13.5 102420 75
2009-05-27 09:07 51°28.591 2°56.861 4.4 24 13.6 102410 72
2009-05-27 09:08 51°28.675 2°57.1 5.9 21 13.5 102410 74
2009-05-27 09:09 51°28.757 2°57.34 4.8 25 13.4 102410 75
2009-05-27 09:10 51°28.84 2°57.582 2.8 21 13.6 102410 76
2009-05-27 09:11 51°28.926 2°57.823 4.1 19 13.8 102410 75
2009-05-27 09:12 51°29.009 2°58.07 5.4 19 13.9 102410 75
2009-05-27 09:13 51°29.092 2°58.302 5.4 26 13.9 102410 75
2009-05-27 09:14 51°29.175 2°58.545 2.9 21 13.8 102410 74
2009-05-27 09:15 51°29.259 2°58.782 2.7 20 13.9 102400 74
2009-05-27 09:16 51°29.343 2°59.023 3.4 28 13.9 102410 75
2009-05-27 09:17 51°29.423 2°59.266 3.4 27 13.9 102400 72
2009-05-27 09:18 51°29.503 2°59.507 3 22 13.9 102400 72
2009-05-27 09:19 51°29.584 2°59.747 5.4 22 13.8 102400 72
2009-05-27 09:20 51°29.68 2°59.97 3.9 26 14 102400 72
2009-05-27 09:21 51°29.778 3°0.19 6.4 26 13.9 102400 72
2009-05-27 09:22 51°29.872 3°0.413 3.5 27 14.1 102400 74
2009-05-27 09:23 51°29.97 3°0.63 5.7 26 14.1 102400 71
2009-05-27 09:24 51°30.068 3°0.849 4.4 20 13.7 102390 71
2009-05-27 09:25 51°30.164 3°1.072 3.2 21 13.6 102400 75
2009-05-27 09:26 51°30.256 3°1.299 3.5 26 13.7 102390 77
2009-05-27 09:27 51°30.347 3°1.532 6.1 27 14 102400 75
2009-05-27 09:28 51°30.438 3°1.766 2.8 20 14 102400 74
2009-05-27 09:29 51°30.531 3°2 2.6 27 13.9 102390 74
2009-05-27 09:30 51°30.626 3°2.231 5.7 26 13.8 102390 76
2009-05-27 09:31 51°30.72 3°2.468 3.6 23 13.6 102390 75
2009-05-27 09:32 51°30.816 3°2.701 2.7 19 13.7 102400 77
2009-05-27 09:33 51°30.915 3°2.925 4.5 24 13.7 102400 77
2009-05-27 09:34 51°31.006 3°3.159 4.7 26 13.8 102400 74
2009-05-27 09:35 51°31.101 3°3.394 4.4 23 13.9 102400 76
2009-05-27 09:36 51°31.192 3°3.633 5.2 24 14.1 102390 73
2009-05-27 09:37 51°31.287 3°3.872 4 22 14.5 102390 70
2009-05-27 09:38 51°31.38 3°4.107 4 18 14.5 102390 68
2009-05-27 09:39 51°31.474 3°4.331 7.3 25 14.1 102390 68
2009-05-27 09:40 51°31.568 3°4.564 6.3 25 13.9 102390 72
2009-05-27 09:41 51°31.661 3°4.792 6.4 20 13.8 102390 72
2009-05-27 09:42 51°31.753 3°5.03 4.6 80 13.7 102390 71
2009-05-27 09:43 51°31.844 3°5.267 4.8 23 13.5 102390 72
2009-05-27 09:44 51°31.959 3°5.466 6 263 13.3 102390 77
2009-05-27 09:45 51°32.12 3°5.443 15.3 247 13.2 102350 78
2009-05-27 09:46 51°32.251 3°5.234 15.1 21 13.1 102340 79
2009-05-27 09:47 51°32.368 3°4.992 15.4 26 13 102340 81
2009-05-27 09:48 51°32.485 3°4.748 14.4 22 12.9 102320 79
2009-05-27 09:49 51°32.605 3°4.503 20.4 283 13 102350 81
2009-05-27 09:50 51°32.727 3°4.255 15.6 24 12.8 102310 79
2009-05-27 09:51 51°32.845 3°4.017 15.9 285 12.8 102320 80
2009-05-27 09:52 51°32.961 3°3.776 17.2 284 12.8 102320 80
2009-05-27 09:53 51°33.076 3°3.541 20 284 12.8 102320 80
2009-05-27 09:54 51°33.154 3°3.279 16.8 284 12.8 102320 80
2009-05-27 09:55 51°33.119 3°2.987 17.9 282 12.8 102330 81
2009-05-27 09:56 51°33.006 3°2.716 20.3 284 12.7 102340 80
2009-05-27 09:57 51°32.884 3°2.466 17.9 283 12.6 102350 80
2009-05-27 09:58 51°32.761 3°2.198 16.4 281 12.6 102350 82
2009-05-27 09:59 51°32.658 3°1.914 17.2 283 12.5 102340 80
2009-05-27 10:00 51°32.562 3°1.619 17.4 280 12.5 102350 80
2009-05-27 10:01 51°32.465 3°1.33 19.8 279 12.6 102360 82
2009-05-27 10:02 51°32.367 3°1.041 19.4 279 12.6 102340 83
2009-05-27 10:03 51°32.268 3°0.75 17.2 285 12.5 102340 84
2009-05-27 10:04 51°32.168 3°0.459 15.8 280 12.4 102350 85
2009-05-27 10:05 51°32.069 3°0.167 20.1 285 12.4 102360 86
2009-05-27 10:06 51°31.975 2°59.871 20.8 282 12.4 102340 85
2009-05-27 10:07 51°31.888 2°59.573 17.4 282 12.4 102350 85
2009-05-27 10:08 51°31.803 2°59.278 22.7 282 12.4 102340 85
2009-05-27 10:09 51°31.713 2°58.975 19 283 12.4 102360 83
2009-05-27 10:10 51°31.622 2°58.68 18.9 280 12.2 102340 85
2009-05-27 10:11 51°31.531 2°58.373 20.9 282 11.9 102340 88
2009-05-27 10:12 51°31.44 2°58.079 20.1 283 11.9 102350 89
2009-05-27 10:13 51°31.333 2°57.798 17.2 282 11.9 102350 88
2009-05-27 10:14 51°31.221 2°57.51 17.7 282 12 102360 87
2009-05-27 10:15 51°31.117 2°57.227 20 280 12.1 102360 86
2009-05-27 10:16 51°31.016 2°56.931 20.3 282 12.2 102360 86
2009-05-27 10:17 51°30.916 2°56.633 19 283 12.2 102350 84
2009-05-27 10:18 51°30.816 2°56.336 19.7 283 12.3 102350 83
2009-05-27 10:19 51°30.72 2°56.044 19 281 12.3 102350 82
2009-05-27 10:20 51°30.625 2°55.752 18.8 283 12.4 102340 82
2009-05-27 10:21 51°30.531 2°55.461 18.4 282 12.5 102340 82
2009-05-27 10:22 51°30.44 2°55.178 20.7 280 12.5 102340 82
2009-05-27 10:23 51°30.345 2°54.887 22.1 284 12.6 102350 84
2009-05-27 10:24 51°30.25 2°54.611 20.4 283 12.6 102340 84
2009-05-27 10:25 51°30.156 2°54.333 20.3 282 12.6 102340 84
2009-05-27 10:26 51°30.058 2°54.045 17.2 282 12.5 102350 83
2009-05-27 10:27 51°29.958 2°53.757 16.9 283 12.5 102350 83
2009-05-27 10:28 51°29.859 2°53.47 17.4 281 12.5 102340 83
2009-05-27 10:29 51°29.764 2°53.185 17.7 282 12.6 102350 85
2009-05-27 10:30 51°29.669 2°52.898 17.4 280 12.7 102340 85
2009-05-27 10:31 51°29.573 2°52.61 21.3 280 12.6 102360 84
2009-05-27 10:32 51°29.479 2°52.327 19.5 284 12.5 102340 83
2009-05-27 10:33 51°29.384 2°52.035 18.1 280 12.6 102370 85
2009-05-27 10:34 51°29.287 2°51.75 19.7 281 12.5 102340 83
2009-05-27 10:35 51°29.19 2°51.462 19.3 283 12.5 102350 82
2009-05-27 10:36 51°29.094 2°51.178 19.2 281 12.5 102350 83
2009-05-27 10:37 51°29.002 2°50.897 16.3 283 12.5 102330 82
2009-05-27 10:38 51°28.903 2°50.611 18.4 283 12.5 102330 82
2009-05-27 10:39 51°28.802 2°50.312 16.3 281 12.6 102350 84
2009-05-27 10:40 51°28.707 2°50.026 17.7 284 12.5 102330 83
2009-05-27 10:41 51°28.613 2°49.73 18.2 280 12.5 102350 82
2009-05-27 10:42 51°28.52 2°49.444 16 282 12.5 102350 83
2009-05-27 10:43 51°28.424 2°49.154 17.1 284 12.4 102340 79
2009-05-27 10:44 51°28.326 2°48.86 17.7 280 12.4 102350 79
2009-05-27 10:45 51°28.235 2°48.582 17.9 283 12.4 102340 77
2009-05-27 10:46 51°28.144 2°48.305 17.5 281 12.5 102350 77
2009-05-27 10:47 51°28.047 2°48.007 17 283 12.6 102370 79
2009-05-27 10:48 51°27.95 2°47.716 18.3 284 12.7 102340 78
2009-05-27 10:49 51°27.851 2°47.428 19.1 283 12.7 102360 78
2009-05-27 10:50 51°27.753 2°47.135 18.6 282 12.7 102370 79
2009-05-27 10:51 51°27.657 2°46.844 20 282 12.8 102370 81
2009-05-27 10:52 51°27.562 2°46.556 18.6 283 12.6 102370 79
2009-05-27 10:53 51°27.47 2°46.278 18.9 283 12.6 102360 81
2009-05-27 10:54 51°27.376 2°45.989 21 281 12.6 102360 82
2009-05-27 10:55 51°27.283 2°45.702 18.3 283 12.5 102360 82
2009-05-27 10:56 51°27.187 2°45.403 20.4 281 12.5 102360 82
2009-05-27 10:57 51°27.092 2°45.107 20.5 282 12.4 102360 82
2009-05-27 10:58 51°26.996 2°44.813 16.7 281 12.4 102360 84
2009-05-27 10:59 51°26.92 2°44.585 20.3 283 12.3 102360 83
2009-05-27 11:00 51°26.839 2°44.334 20.1 284 12.3 102360 83
2009-05-27 11:01 51°26.771 2°44.129 14.6 278 12.3 102380 83
2009-05-27 11:03 51°26.694 2°43.888 18.1 281 12.3 102370 83
2009-05-27 11:03 51°26.604 2°43.616 20.9 283 12.2 102370 83
2009-05-27 11:04 51°26.51 2°43.335 16 283 12.2 102370 83
2009-05-27 11:05 51°26.415 2°43.042 18.1 281 12.3 102370 81
2009-05-27 11:06 51°26.321 2°42.752 18.4 282 12.2 102380 81
2009-05-27 11:07 51°26.226 2°42.468 16.5 282 12.3 102370 80
2009-05-27 11:08 51°26.125 2°42.191 16.7 285 12.3 102370 80
2009-05-27 11:09 51°25.977 2°41.983 18.1 282 12.3 102370 81
2009-05-27 11:10 51°25.793 2°41.884 16.2 351 12.3 102360 82
2009-05-27 11:11 51°25.598 2°41.87 14.2 353 12.3 102350 82
2009-05-27 11:12 51°25.404 2°41.889 17.2 355 12.3 102370 84
2009-05-27 11:13 51°25.21 2°41.951 12.1 1 12.3 102360 84
2009-05-27 11:14 51°25.039 2°42.101 12.2 7 12.4 102370 84
2009-05-27 11:15 51°24.877 2°42.267 15 3 12.4 102370 85
2009-05-27 11:16 51°24.701 2°42.413 15.3 -999 12.4 102390 86
2009-05-27 11:17 51°24.523 2°42.556 10.7 -999 12.4 102370 86
2009-05-27 11:18 51°24.351 2°42.713 16.6 9 12.4 102380 87
2009-05-27 11:19 51°24.181 2°42.857 19.7 11 12.4 102370 87
2009-05-27 11:20 51°24.01 2°43.005 13.7 4 12.4 102370 87
2009-05-27 11:21 51°23.842 2°43.151 16.9 8 12.4 102370 87
2009-05-27 11:22 51°23.67 2°43.303 12.2 6 12.4 102390 87
2009-05-27 11:23 51°23.504 2°43.445 13.3 5 12.4 102370 87
2009-05-27 11:24 51°23.334 2°43.582 11.3 5 12.3 102390 86
2009-05-27 11:25 51°23.165 2°43.721 13.3 8 12.3 102370 87
2009-05-27 11:26 51°22.995 2°43.863 13.9 2 12.4 102380 87
2009-05-27 11:27 51°22.823 2°44.007 12.2 6 12.4 102360 86
2009-05-27 11:28 51°22.656 2°44.148 12.8 6 12.4 102360 85
2009-05-27 11:29 51°22.485 2°44.297 16.7 8 12.4 102380 86
2009-05-27 11:30 51°22.314 2°44.453 14.8 3 12.4 102370 85
2009-05-27 11:31 51°22.144 2°44.607 15.7 7 12.4 102380 85
2009-05-27 11:32 51°21.973 2°44.761 13 8 12.5 102380 83
2009-05-27 11:33 51°21.802 2°44.925 14.8 8 12.5 102380 85
2009-05-27 11:34 51°21.628 2°45.086 14 6 12.5 102360 84
2009-05-27 11:35 51°21.459 2°45.243 18.8 11 12.5 102370 84
2009-05-27 11:36 51°21.288 2°45.401 11.2 9 12.6 102380 84
2009-05-27 11:37 51°21.117 2°45.56 16.8 8 12.7 102360 85
2009-05-27 11:38 51°20.949 2°45.719 18.5 9 12.7 102370 83
2009-05-27 11:39 51°20.781 2°45.878 16.6 10 12.7 102370 83
2009-05-27 11:40 51°20.617 2°46.031 16.4 7 12.7 102370 84
2009-05-27 11:41 51°20.453 2°46.187 14.8 4 12.6 102360 81
2009-05-27 11:42 51°20.289 2°46.344 17 10 12.6 102370 80
2009-05-27 11:43 51°20.12 2°46.5 12.2 9 12.6 102370 79
2009-05-27 11:44 51°19.954 2°46.653 13.5 7 12.8 102370 82
2009-05-27 11:45 51°19.786 2°46.805 14.9 8 12.8 102380 80
2009-05-27 11:46 51°19.616 2°46.96 15.2 11 12.7 102370 80
2009-05-27 11:47 51°19.447 2°47.112 12.1 8 12.9 102390 82
2009-05-27 11:48 51°19.278 2°47.265 17.3 10 12.8 102380 80
2009-05-27 11:49 51°19.11 2°47.419 18.4 8 12.8 102380 81
2009-05-27 11:50 51°18.94 2°47.575 14.6 11 12.8 102370 80
2009-05-27 11:51 51°18.772 2°47.736 11.1 7 13 102380 83
2009-05-27 11:52 51°18.601 2°47.902 13.7 8 12.9 102370 80
2009-05-27 11:53 51°18.436 2°48.063 14.1 7 12.9 102370 80
2009-05-27 11:54 51°18.27 2°48.229 9.8 9 12.8 102370 79
2009-05-27 11:55 51°18.102 2°48.393 11.4 7 12.8 102370 80
2009-05-27 11:56 51°17.936 2°48.559 12.5 7 12.8 102370 78
2009-05-27 11:57 51°17.766 2°48.724 13.3 7 12.8 102370 78
2009-05-27 11:58 51°17.599 2°48.886 12.2 5 12.9 102370 80
2009-05-27 11:59 51°17.429 2°49.05 13.2 7 12.9 102370 78
2009-05-27 12:00 51°17.258 2°49.212 12.9 7 13 102380 82
2009-05-27 12:01 51°17.086 2°49.382 13.8 5 12.9 102360 77
2009-05-27 12:02 51°16.919 2°49.549 12.5 8 12.9 102370 78
2009-05-27 12:03 51°16.749 2°49.722 14.5 11 12.9 102360 78
2009-05-27 12:04 51°16.581 2°49.898 14.6 7 12.9 102370 78
2009-05-27 12:05 51°16.414 2°50.075 15.1 6 12.9 102370 77
2009-05-27 12:06 51°16.243 2°50.25 14.6 9 12.9 102360 75
2009-05-27 12:07 51°16.084 2°50.419 14.4 8 13 102370 79
2009-05-27 12:08 51°15.932 2°50.621 13.5 12 13 102370 77
2009-05-27 12:09 51°15.816 2°50.882 11.5 16 13 102380 77
2009-05-27 12:10 51°15.733 2°51.173 9.8 29 13 102380 77
2009-05-27 12:11 51°15.684 2°51.488 9.5 28 13 102400 77
2009-05-27 12:12 51°15.638 2°51.799 10.4 24 12.9 102380 75
2009-05-27 12:13 51°15.567 2°52.104 13.3 15 13 102380 76
2009-05-27 12:14 51°15.482 2°52.385 10.9 17 13 102380 78
2009-05-27 12:15 51°15.39 2°52.668 13.8 16 12.9 102390 80
2009-05-27 12:16 51°15.287 2°52.927 13.7 13 12.7 102390 78
2009-05-27 12:17 51°15.182 2°53.192 13 15 12.7 102380 79
2009-05-27 12:18 51°15.085 2°53.466 13.4 16 12.7 102380 78
2009-05-27 12:19 51°14.997 2°53.748 15.3 9 12.6 102390 74
2009-05-27 12:20 51°14.892 2°54.001 12.4 12 12.8 102370 75
2009-05-27 12:21 51°14.777 2°54.252 13.8 14 12.8 102370 76
2009-05-27 12:22 51°14.653 2°54.5 12.4 8 12.8 102360 74
2009-05-27 12:23 51°14.536 2°54.739 13.4 6 12.9 102380 75
2009-05-27 12:24 51°14.411 2°54.986 10.7 7 12.9 102370 73
2009-05-27 12:25 51°14.285 2°55.214 9.8 3 12.9 102380 72
2009-05-27 12:26 51°14.171 2°55.389 4.9 351 12.9 102390 72
2009-05-27 12:27 51°14.053 2°55.482 8.2 354 12.9 102390 71
2009-05-27 12:28 51°13.944 2°55.555 4.8 286 12.9 102390 71
2009-05-27 12:29 51°13.843 2°55.62 6.7 281 12.9 102380 70
2009-05-27 12:30 51°13.75 2°55.705 4.6 351 12.9 102390 70
2009-05-27 12:31 51°13.697 2°55.829 6.3 9 12.9 102390 69
2009-05-27 12:32 51°13.666 2°55.926 4.8 25 12.9 102410 70
2009-05-27 12:33 51°13.661 2°55.956 6 30 13 102400 70
2009-05-27 12:34 51°13.662 2°55.96 4.1 34 12.9 102400 67
2009-05-27 12:35 51°13.663 2°55.959 7.3 26 12.9 102400 68
2009-05-27 12:36 51°13.662 2°55.96 5.4 28 12.9 102390 68
2009-05-27 12:37 51°13.662 2°55.96 2.6 24 13 102400 69
2009-05-27 12:38 51°13.662 2°55.959 4 36 13.1 102400 70
2009-05-27 12:39 51°13.662 2°55.959 4.3 15 13.1 102400 70
2009-05-27 12:41 51°13.662 2°55.96 3.4 20 13 102400 68
2009-05-27 12:42 51°13.662 2°55.959 4.3 23 -999 -999 -999
2009-05-27 12:43 51°13.663 2°55.959 4.7 31 12.9 102400 65
2009-05-27 12:44 51°13.663 2°55.959 4.3 6 12.9 102400 66
2009-05-27 12:45 51°13.663 2°55.959 9.2 30 12.8 102380 65
2009-05-27 12:46 51°13.663 2°55.959 10.7 34 12.8 102390 66
2009-05-27 12:47 51°13.664 2°55.959 7.1 30 12.7 102390 66
2009-05-27 12:48 51°13.664 2°55.96 5.7 30 12.7 102390 66
2009-05-27 12:49 51°13.663 2°55.961 4.8 33 12.6 102390 67
2009-05-27 12:50 51°13.663 2°55.961 6.8 37 12.6 102390 70
2009-05-27 12:51 51°13.663 2°55.96 12.4 31 12.6 102390 70
2009-05-27 12:52 51°13.664 2°55.961 9 32 12.6 102380 70
2009-05-27 12:53 51°13.664 2°55.96 6.9 16 12.5 102390 70
2009-05-27 12:54 51°13.663 2°55.96 9 34 12.5 102400 70
2009-05-27 12:55 51°13.662 2°55.96 5.1 19 12.5 102390 71
2009-05-27 12:56 51°13.662 2°55.961 6.5 36 12.6 102390 72
2009-05-27 12:57 51°13.662 2°55.961 5.2 27 12.5 102390 72
2009-05-27 12:58 51°13.663 2°55.961 3.3 11 12.5 102390 73
2009-05-27 12:59 51°13.663 2°55.96 8.6 39 12.5 102390 73
2009-05-27 13:00 51°13.663 2°55.96 6.5 32 12.5 102390 73
2009-05-27 13:01 51°13.663 2°55.96 5.9 41 12.5 102390 74
2009-05-27 13:02 51°13.663 2°55.959 5.7 38 12.5 102390 74
2009-05-27 13:03 51°13.663 2°55.959 3 26 12.5 102400 74
2009-05-27 13:04 51°13.663 2°55.959 4.7 25 12.5 102400 75
2009-05-27 13:05 51°13.663 2°55.959 3.7 33 12.5 102400 76
2009-05-27 13:06 51°13.663 2°55.959 3.2 31 12.5 102400 76
2009-05-27 13:07 51°13.663 2°55.958 7 32 12.5 102400 76
2009-05-27 13:08 51°13.663 2°55.958 4.9 36 12.5 102390 76
2009-05-27 13:09 51°13.663 2°55.958 8.9 19 12.5 102400 77
2009-05-27 13:10 51°13.664 2°55.959 5 23 12.4 102380 75
2009-05-27 13:11 51°13.664 2°55.958 5.8 353 12.5 102390 76
2009-05-27 13:12 51°13.664 2°55.959 3.4 15 12.5 102390 75
2009-05-27 13:13 51°13.664 2°55.959 5.9 16 12.5 102380 75
2009-05-27 13:14 51°13.664 2°55.959 6.6 38 12.6 102390 75
2009-05-27 13:15 51°13.664 2°55.959 5.8 34 12.6 102390 73
2009-05-27 13:16 51°13.663 2°55.959 4.4 18 12.6 102390 74
2009-05-27 13:17 51°13.663 2°55.96 9.7 30 12.7 102390 73
2009-05-27 13:18 51°13.662 2°55.96 6.7 23 12.6 102390 71
2009-05-27 13:19 51°13.664 2°55.96 6.1 32 12.6 102390 72
2009-05-27 13:20 51°13.664 2°55.961 5 31 12.6 102390 73
2009-05-27 13:21 51°13.662 2°55.961 8.5 34 12.5 102390 72
2009-05-27 13:22 51°13.662 2°55.961 6.8 45 12.5 102390 72
2009-05-27 13:23 51°13.662 2°55.961 6.8 34 12.4 102400 72
2009-05-27 13:24 51°13.661 2°55.961 6 25 12.4 102400 73
2009-05-27 13:25 51°13.66 2°55.961 6.5 10 12.4 102400 73
2009-05-27 13:26 51°13.661 2°55.96 5.8 30 12.3 102390 74
2009-05-27 13:27 51°13.661 2°55.96 7.8 30 12.3 102390 74
2009-05-27 13:28 51°13.661 2°55.96 6.1 20 12.2 102390 76
2009-05-27 13:29 51°13.662 2°55.96 8.7 19 12.2 102390 76
2009-05-27 13:30 51°13.662 2°55.96 5.7 26 12.1 102380 77
2009-05-27 13:31 51°13.663 2°55.96 5.1 8 12.1 102380 77
2009-05-27 13:32 51°13.662 2°55.96 6.2 14 12.1 102380 76
2009-05-27 13:33 51°13.662 2°55.959 8.2 31 12 102380 76
2009-05-27 13:34 51°13.663 2°55.96 7.9 26 12 102390 76
2009-05-27 13:35 51°13.662 2°55.96 11.4 28 12 102380 77
2009-05-27 13:36 51°13.663 2°55.961 6.9 28 12 102380 76
2009-05-27 13:37 51°13.663 2°55.96 5.3 27 12 102370 77
2009-05-27 13:38 51°13.662 2°55.96 6.5 21 12.1 102370 78
2009-05-27 13:39 51°13.662 2°55.96 10.4 33 12.1 102380 77
2009-05-27 13:40 51°13.661 2°55.959 6.7 31 12.1 102380 77
2009-05-27 13:41 51°13.662 2°55.959 7.4 24 12.1 102370 79
2009-05-27 13:42 51°13.663 2°55.959 5.2 12 12.1 102360 79
2009-05-27 13:43 51°13.664 2°55.959 4.3 30 12.1 102360 79
2009-05-27 13:44 51°13.664 2°55.96 5 26 12.1 102360 80
2009-05-27 13:45 51°13.664 2°55.961 7.7 19 12.1 102350 79
2009-05-27 13:46 51°13.663 2°55.961 6.2 11 12.1 102360 80
2009-05-27 13:47 51°13.664 2°55.96 5.1 14 12.1 102350 81
2009-05-27 13:48 51°13.664 2°55.959 6.8 25 12.1 102350 80
2009-05-27 13:49 51°13.664 2°55.959 5.2 21 12.1 102350 80
2009-05-27 13:50 51°13.662 2°55.959 5.3 17 12 102350 79
2009-05-27 13:51 51°13.662 2°55.959 5.3 22 12.1 102350 80
2009-05-27 13:52 51°13.662 2°55.959 5.4 20 12.1 102350 80
2009-05-27 13:53 51°13.663 2°55.96 7.2 16 12 102350 78
2009-05-27 13:54 51°13.663 2°55.96 3.2 33 12.1 102350 79
2009-05-27 13:55 51°13.663 2°55.959 3.5 32 12 102340 77
2009-05-27 13:56 51°13.663 2°55.96 5.7 8 12.1 102340 79
2009-05-27 13:57 51°13.663 2°55.96 4.7 18 12.1 102340 78
2009-05-27 13:58 51°13.662 2°55.96 6.8 16 12.1 102340 77
2009-05-27 13:59 51°13.662 2°55.96 6.4 15 12 102330 77
2009-05-27 14:00 51°13.663 2°55.96 8.3 14 11.9 102330 76
2009-05-27 14:01 51°13.663 2°55.96 6.4 15 11.9 102330 76
2009-05-27 14:02 51°13.663 2°55.96 6.4 23 11.9 102330 77
2009-05-27 14:03 51°13.663 2°55.961 5.9 28 11.9 102330 77
2009-05-27 14:04 51°13.663 2°55.96 7.5 21 11.9 102340 78
2009-05-27 14:05 51°13.663 2°55.96 9 29 11.9 102330 78
2009-05-27 14:06 51°13.664 2°55.961 4.5 11 11.9 102330 79
2009-05-27 14:07 51°13.663 2°55.961 9.5 39 11.9 102330 78
2009-05-27 14:08 51°13.663 2°55.961 5.2 27 11.9 102330 80
2009-05-27 14:09 51°13.663 2°55.961 11.2 21 11.9 102340 80
2009-05-27 14:10 51°13.663 2°55.961 5.1 16 11.9 102330 80
2009-05-27 14:11 51°13.664 2°55.961 3.3 12 11.9 102330 81
2009-05-27 14:12 51°13.664 2°55.961 3.8 8 11.9 102330 82
2009-05-27 14:13 51°13.664 2°55.96 4.7 2 11.9 102330 81
2009-05-27 14:14 51°13.664 2°55.96 2.7 38 11.9 102320 82
2009-05-27 14:15 51°13.664 2°55.96 5.3 1 11.9 102320 82
2009-05-27 14:16 51°13.664 2°55.959 8.5 16 11.9 102320 81
2009-05-27 14:17 51°13.664 2°55.96 4.8 3 11.9 102330 81
2009-05-27 14:18 51°13.664 2°55.961 5.4 29 11.8 102320 81
2009-05-27 14:19 51°13.664 2°55.961 5.9 18 11.8 102320 81
2009-05-27 14:20 51°13.664 2°55.962 4.7 22 11.8 102320 81
2009-05-27 14:21 51°13.663 2°55.961 9 10 11.8 102310 82
2009-05-27 14:22 51°13.663 2°55.96 5.7 16 11.8 102310 82
2009-05-27 14:23 51°13.664 2°55.96 7.8 35 11.8 102320 82
2009-05-27 14:24 51°13.664 2°55.96 4.8 15 11.9 102310 83
2009-05-27 14:25 51°13.664 2°55.961 4.4 350 11.8 102300 81
2009-05-27 14:26 51°13.664 2°55.961 3.2 8 11.8 102310 82
2009-05-27 14:27 51°13.664 2°55.96 7 10 11.9 102310 82
2009-05-27 14:28 51°13.663 2°55.96 5.2 9 11.9 102300 83
2009-05-27 14:29 51°13.664 2°55.96 6 25 11.9 102300 83
2009-05-27 14:30 51°13.663 2°55.961 3.8 14 11.9 102300 82
2009-05-27 14:31 51°13.666 2°55.96 6.6 26 12 102310 83
2009-05-27 14:32 51°13.662 2°55.961 5.7 3 12 102300 83
2009-05-27 14:33 51°13.662 2°55.96 12.4 9 12 102290 82
2009-05-27 14:34 51°13.661 2°55.96 6.4 26 11.9 102290 81
2009-05-27 14:35 51°13.662 2°55.96 4.5 35 12 102300 81
2009-05-27 14:36 51°13.662 2°55.96 5 27 12.1 102290 81
2009-05-27 14:37 51°13.661 2°55.96 4.1 7 12.2 102290 81
2009-05-27 14:38 51°13.661 2°55.96 6.3 15 12.2 102290 81
2009-05-27 14:39 51°13.661 2°55.96 6.5 4 12.2 102300 79
2009-05-27 14:40 51°13.661 2°55.96 6.4 54 12.3 102290 81
2009-05-27 14:41 51°13.661 2°55.96 5 21 12.3 102280 80
2009-05-27 14:42 51°13.662 2°55.96 5.7 4 12.4 102280 81
2009-05-27 14:43 51°13.662 2°55.961 5.2 19 12.3 102280 80
2009-05-27 14:44 51°13.663 2°55.96 7.9 13 12.3 102280 79
2009-05-27 14:45 51°13.663 2°55.96 4.7 28 12.3 102260 79
2009-05-27 14:46 51°13.663 2°55.96 3.4 17 12.3 102270 79
2009-05-27 14:47 51°13.663 2°55.96 10.5 10 12.3 102270 80
2009-05-27 14:48 51°13.662 2°55.961 5.3 20 12.3 102270 78
2009-05-27 14:49 51°13.663 2°55.961 6.4 21 12.2 102260 79
2009-05-27 14:50 51°13.663 2°55.96 6 15 12.3 102260 79
2009-05-27 14:51 51°13.663 2°55.96 6.1 6 12.3 102270 76
2009-05-27 14:52 51°13.662 2°55.96 8.5 9 12.3 102270 76
2009-05-27 14:53 51°13.662 2°55.96 10.3 10 12.3 102270 76
2009-05-27 14:54 51°13.663 2°55.96 7.7 19 12.3 102260 76
2009-05-27 14:55 51°13.662 2°55.96 6.2 27 12.3 102260 75
2009-05-27 14:56 51°13.663 2°55.96 5.1 2 12.3 102260 75
2009-05-27 14:57 51°13.663 2°55.96 3.8 18 12.3 102260 75
2009-05-27 14:58 51°13.663 2°55.96 10.9 10 12.3 102260 75
2009-05-27 14:59 51°13.663 2°55.96 9.3 42 12.3 102260 75
2009-05-27 15:00 51°13.663 2°55.96 6.3 9 12.4 102260 75
2009-05-27 15:01 51°13.663 2°55.96 4.1 10 12.4 102260 75
2009-05-27 15:02 51°13.663 2°55.96 4.3 9 12.4 102260 75
2009-05-27 15:03 51°13.663 2°55.959 8.5 24 12.4 102260 75
2009-05-27 15:04 51°13.663 2°55.96 8.4 15 12.3 102250 74
2009-05-27 15:05 51°13.663 2°55.96 6.5 6 12.3 102260 75
2009-05-27 15:06 51°13.663 2°55.96 6 11 12.4 102260 75
2009-05-27 15:07 51°13.662 2°55.96 6 20 12.4 102250 74
2009-05-27 15:08 51°13.662 2°55.96 8.2 10 12.4 102250 74
2009-05-27 15:09 51°13.661 2°55.96 7.4 33 12.4 102250 74
2009-05-27 15:10 51°13.661 2°55.96 4.9 26 12.3 102250 74
2009-05-27 15:11 51°13.662 2°55.96 7.8 7 12.3 102260 76
2009-05-27 15:12 51°13.662 2°55.96 5.6 8 12.3 102250 74
2009-05-27 15:13 51°13.662 2°55.96 10.7 18 12.3 102250 76
2009-05-27 15:14 51°13.662 2°55.96 6.5 16 12.2 102250 76
2009-05-27 15:15 51°13.662 2°55.96 4.5 357 12.3 102250 76
2009-05-27 15:16 51°13.662 2°55.96 7.3 19 12.2 102250 76
2009-05-27 15:17 51°13.662 2°55.96 6 22 12.2 102260 76
2009-05-27 15:18 51°13.663 2°55.96 11.8 6 12.2 102250 76
2009-05-27 15:19 51°13.662 2°55.96 10.6 13 12.2 102250 77
2009-05-27 15:20 51°13.662 2°55.96 8.7 6 12.2 102260 76
2009-05-27 15:21 51°13.662 2°55.96 5.9 24 12.3 102260 76
2009-05-27 15:22 51°13.663 2°55.96 6.5 11 12.3 102260 77
2009-05-27 15:23 51°13.663 2°55.959 4.6 356 12.3 102240 76
2009-05-27 15:24 51°13.664 2°55.959 7.7 9 12.4 102250 77
2009-05-27 15:25 51°13.664 2°55.959 8.5 355 12.4 102260 76
2009-05-27 15:26 51°13.664 2°55.96 6.6 39 12.4 102240 76
2009-05-27 15:27 51°13.664 2°55.96 4.9 10 12.4 102250 77
2009-05-27 15:28 51°13.664 2°55.959 6.6 16 12.4 102240 76
2009-05-27 15:29 51°13.664 2°55.959 5.7 18 12.5 102250 77
2009-05-27 15:30 51°13.664 2°55.959 6.4 15 12.5 102250 76
2009-05-27 15:31 51°13.663 2°55.959 8.5 6 12.5 102270 76
2009-05-27 15:32 51°13.663 2°55.96 8.6 17 12.5 102260 76
2009-05-27 15:33 51°13.662 2°55.96 8.1 8 12.4 102250 75
2009-05-27 15:34 51°13.661 2°55.96 3.6 19 12.5 102260 75
2009-05-27 15:35 51°13.661 2°55.96 9.5 5 12.5 102270 74
2009-05-27 15:36 51°13.662 2°55.96 6.5 25 12.5 102260 73
2009-05-27 15:37 51°13.662 2°55.961 4.3 14 12.5 102260 74
2009-05-27 15:38 51°13.663 2°55.96 4.3 11 12.5 102250 73
2009-05-27 15:39 51°13.663 2°55.96 6.1 13 12.6 102250 73
2009-05-27 15:40 51°13.664 2°55.959 5 11 12.6 102250 73
2009-05-27 15:41 51°13.664 2°55.959 7.7 23 12.6 102250 72
2009-05-27 15:42 51°13.664 2°55.959 7.3 12 12.6 102240 73
2009-05-27 15:43 51°13.665 2°55.96 5.4 15 12.6 102250 73
2009-05-27 15:44 51°13.664 2°55.959 5.5 26 12.6 102260 73
2009-05-27 15:45 51°13.663 2°55.959 6.6 26 12.6 102260 74
2009-05-27 15:46 51°13.663 2°55.959 4 21 12.6 102250 74
2009-05-27 15:47 51°13.662 2°55.959 5.8 7 12.6 102250 74
2009-05-27 15:48 51°13.663 2°55.959 4.2 7 12.7 102250 74
2009-05-27 15:49 51°13.663 2°55.959 6 38 12.6 102250 74
2009-05-27 15:50 51°13.664 2°55.959 6.1 7 12.7 102250 74
2009-05-27 15:51 51°13.664 2°55.959 7.2 32 12.6 102250 74
2009-05-27 15:52 51°13.662 2°55.959 4.2 22 12.6 102250 74
2009-05-27 15:53 51°13.662 2°55.959 6.9 9 12.6 102260 74
2009-05-27 15:54 51°13.662 2°55.959 6.8 26 12.6 102250 74
2009-05-27 15:55 51°13.662 2°55.959 4.4 32 12.6 102260 74
2009-05-27 15:56 51°13.662 2°55.959 5.5 25 12.5 102250 74
2009-05-27 15:57 51°13.662 2°55.959 4.6 30 12.5 102250 74
2009-05-27 15:58 51°13.662 2°55.959 4.1 24 12.6 102250 75
2009-05-27 15:59 51°13.663 2°55.959 7.7 12 12.6 102250 75
2009-05-27 16:00 51°13.663 2°55.959 3.4 7 12.6 102240 75
2009-05-27 16:01 51°13.663 2°55.959 4.5 36 12.5 102240 75
2009-05-27 16:02 51°13.663 2°55.959 5.6 25 12.5 102240 75
2009-05-27 16:03 51°13.663 2°55.959 6.6 15 12.5 102240 75
2009-05-27 16:04 51°13.662 2°55.959 5.1 25 12.5 102240 75
2009-05-27 16:05 51°13.662 2°55.959 5.6 351 12.5 102240 75
2009-05-27 16:06 51°13.662 2°55.958 7 6 12.5 102220 75
2009-05-27 16:07 51°13.663 2°55.959 8.6 17 12.5 102240 76
2009-05-27 16:08 51°13.663 2°55.959 6.1 29 12.4 102240 75
2009-05-27 16:09 51°13.662 2°55.958 5.9 20 12.4 102230 75
2009-05-27 16:10 51°13.663 2°55.96 4.4 41 12.4 102230 76
2009-05-27 16:11 51°13.662 2°55.959 4.7 39 12.5 102230 76
2009-05-27 16:12 51°13.662 2°55.959 6.5 35 12.4 102240 76
2009-05-27 16:13 51°13.662 2°55.959 4.6 2 12.4 102230 76
2009-05-27 16:14 51°13.662 2°55.959 6.9 30 12.4 102230 76
2009-05-27 16:15 51°13.663 2°55.959 4.2 15 12.5 102230 76
2009-05-27 16:16 51°13.664 2°55.959 6.7 25 12.5 102230 76
2009-05-27 16:17 51°13.664 2°55.959 5.4 33 12.5 102230 76
2009-05-27 16:18 51°13.665 2°55.959 4.1 4 12.5 102230 76
2009-05-27 16:19 51°13.665 2°55.958 8.6 24 12.4 102210 76
2009-05-27 16:20 51°13.664 2°55.958 5.4 42 12.4 102230 77
2009-05-27 16:21 51°13.664 2°55.959 5.6 30 12.4 102230 76
2009-05-27 16:22 51°13.664 2°55.959 8.4 27 12.4 102230 76
2009-05-27 16:23 51°13.664 2°55.959 8.3 34 12.4 102230 76
2009-05-27 16:24 51°13.664 2°55.959 7.2 16 12.4 102230 77
2009-05-27 16:25 51°13.664 2°55.959 3.7 22 12.4 102220 77
2009-05-27 16:26 51°13.664 2°55.959 5 19 12.4 102230 77
2009-05-27 16:27 51°13.664 2°55.959 5 21 12.4 102230 78
2009-05-27 16:28 51°13.664 2°55.959 6.6 17 12.4 102230 78
2009-05-27 16:29 51°13.664 2°55.959 4.4 28 12.4 102220 78
2009-05-27 16:30 51°13.663 2°55.959 4 8 12.4 102230 78
2009-05-27 16:31 51°13.663 2°55.959 6.4 29 12.4 102220 78
2009-05-27 16:32 51°13.663 2°55.96 3.7 10 12.4 102220 79
2009-05-27 16:33 51°13.663 2°55.96 6.4 15 12.4 102240 79
2009-05-27 16:34 51°13.663 2°55.96 6.4 28 12.4 102220 79
2009-05-27 16:35 51°13.663 2°55.96 3.5 27 12.3 102220 79
2009-05-27 16:36 51°13.664 2°55.96 5.9 360 12.3 102210 79
2009-05-27 16:37 51°13.664 2°55.96 5.3 24 12.3 102200 79
2009-05-27 16:38 51°13.663 2°55.96 4.3 9 12.3 102220 77
2009-05-27 16:39 51°13.663 2°55.961 7 23 12.3 102210 79
2009-05-27 16:40 51°13.663 2°55.961 4 17 12.3 102210 80
2009-05-27 16:41 51°13.663 2°55.961 5.3 12 12.3 102200 79
2009-05-27 16:42 51°13.663 2°55.961 4.5 19 12.3 102210 80
2009-05-27 16:43 51°13.663 2°55.961 3 18 12.3 102210 80
2009-05-27 16:44 51°13.663 2°55.96 6.8 12 12.3 102210 80
2009-05-27 16:45 51°13.663 2°55.96 4.8 11 12.3 102210 80
2009-05-27 16:46 51°13.662 2°55.96 6.9 9 12.3 102210 81
2009-05-27 16:47 51°13.662 2°55.96 3.6 1 12.3 102210 81
2009-05-27 16:48 51°13.662 2°55.961 10.8 28 12.2 102200 80
2009-05-27 16:49 51°13.662 2°55.961 3.8 30 12.2 102210 81
2009-05-27 16:50 51°13.662 2°55.961 2.3 20 12.3 102210 81
2009-05-27 16:51 51°13.662 2°55.961 5.2 31 12.3 102210 81
2009-05-27 16:52 51°13.663 2°55.961 9.9 14 12.3 102210 81
2009-05-27 16:53 51°13.663 2°55.96 6.4 23 12.3 102210 81
2009-05-27 16:54 51°13.662 2°55.96 6 19 12.2 102210 81
2009-05-27 16:55 51°13.662 2°55.96 10.6 21 12.2 102210 81
2009-05-27 16:56 51°13.662 2°55.96 5.3 26 12.2 102210 81
2009-05-27 16:57 51°13.663 2°55.96 4.7 27 12.2 102210 81
2009-05-27 16:58 51°13.663 2°55.96 4.5 16 12.2 102210 82
2009-05-27 16:59 51°13.662 2°55.961 7.3 8 12.2 102210 81
2009-05-27 17:00 51°13.663 2°55.961 8.2 7 12.2 102210 82
2009-05-27 17:01 51°13.663 2°55.96 10.1 14 12.2 102210 82
2009-05-27 17:02 51°13.664 2°55.96 6.3 17 12.2 102220 82
2009-05-27 17:03 51°13.663 2°55.959 4.7 25 12.2 102200 82
2009-05-27 17:04 51°13.663 2°55.959 5.3 17 12.2 102210 82
2009-05-27 17:05 51°13.663 2°55.959 2.2 22 12.2 102210 83
2009-05-27 17:06 51°13.663 2°55.958 6.1 23 12.2 102210 83
2009-05-27 17:07 51°13.664 2°55.958 7.1 28 12.2 102210 83
2009-05-27 17:08 51°13.664 2°55.959 9.3 25 12.2 102210 83
2009-05-27 17:09 51°13.664 2°55.959 6 5 12.1 102210 83
2009-05-27 17:10 51°13.663 2°55.959 4.9 44 12.2 102210 84
2009-05-27 17:11 51°13.662 2°55.959 8.5 29 12.2 102210 84